Terminal Aerodrome Forecast
Issued by NWS

Home | Current Version | Previous Version | Text Only | Print | Product List | Glossary On
Versions: 1 2 3 4 5 6 7 8 9 10 11 12 13 14 15 16 17 18 19 20 21 22 23 24 25 26
000
FTUS43 KDLH 281733
TAFBRD
TAF
KBRD 281733Z 2818/2918 19015G22KT P6SM FEW020 BKN250
     FM290000 21006KT P6SM SCT100 BKN250
     FM290900 19003KT 6SM BR SKC
     FM291400 19006KT P6SM SKC=

USA.gov is the U.S. government's official web portal to all federal, state and local government web resources and services.